sensor_id;sensor_type;location;lat;lon;timestamp;P1;durP1;ratioP1;P2;durP2;ratioP2
12591;SDS011;6361;52.120;5.108;2023-01-16T00:01:09;6.93;;;4.65;;
12591;SDS011;6361;52.120;5.108;2023-01-16T00:03:35;5.75;;;4.13;;
12591;SDS011;6361;52.120;5.108;2023-01-16T00:06:00;5.35;;;4.10;;
12591;SDS011;6361;52.120;5.108;2023-01-16T00:08:26;7.57;;;4.70;;
12591;SDS011;6361;52.120;5.108;2023-01-16T00:10:51;7.55;;;4.60;;
12591;SDS011;6361;52.120;5.108;2023-01-16T00:13:16;6.75;;;4.68;;
12591;SDS011;6361;52.120;5.108;2023-01-16T00:15:46;8.65;;;5.18;;
12591;SDS011;6361;52.120;5.108;2023-01-16T00:18:12;10.25;;;5.30;;
12591;SDS011;6361;52.120;5.108;2023-01-16T00:20:38;7.00;;;5.32;;
12591;SDS011;6361;52.120;5.108;2023-01-16T00:23:03;8.00;;;5.80;;
12591;SDS011;6361;52.120;5.108;2023-01-16T00:25:28;9.30;;;6.03;;
12591;SDS011;6361;52.120;5.108;2023-01-16T00:27:54;7.70;;;6.18;;
12591;SDS011;6361;52.120;5.108;2023-01-16T00:30:19;9.13;;;6.43;;
12591;SDS011;6361;52.120;5.108;2023-01-16T00:32:45;9.40;;;6.60;;
12591;SDS011;6361;52.120;5.108;2023-01-16T00:35:10;8.95;;;6.97;;
12591;SDS011;6361;52.120;5.108;2023-01-16T00:37:36;10.43;;;7.65;;
12591;SDS011;6361;52.120;5.108;2023-01-16T00:40:01;12.68;;;7.55;;
12591;SDS011;6361;52.120;5.108;2023-01-16T00:42:27;12.07;;;8.25;;
12591;SDS011;6361;52.120;5.108;2023-01-16T00:44:52;14.10;;;9.10;;
12591;SDS011;6361;52.120;5.108;2023-01-16T00:47:17;12.68;;;8.90;;
12591;SDS011;6361;52.120;5.108;2023-01-16T00:49:43;11.88;;;8.82;;
12591;SDS011;6361;52.120;5.108;2023-01-16T00:52:08;12.57;;;9.73;;
12591;SDS011;6361;52.120;5.108;2023-01-16T00:54:33;14.00;;;9.95;;
12591;SDS011;6361;52.120;5.108;2023-01-16T00:56:59;15.50;;;10.57;;
12591;SDS011;6361;52.120;5.108;2023-01-16T00:59:24;17.20;;;10.52;;
12591;SDS011;6361;52.120;5.108;2023-01-16T01:01:49;15.27;;;10.73;;
12591;SDS011;6361;52.120;5.108;2023-01-16T01:04:15;16.90;;;10.85;;
12591;SDS011;6361;52.120;5.108;2023-01-16T01:06:41;18.13;;;9.82;;
12591;SDS011;6361;52.120;5.108;2023-01-16T01:09:07;14.77;;;10.18;;
12591;SDS011;6361;52.120;5.108;2023-01-16T01:11:32;15.73;;;10.25;;
12591;SDS011;6361;52.120;5.108;2023-01-16T01:13:58;14.30;;;9.45;;
12591;SDS011;6361;52.120;5.108;2023-01-16T01:16:23;17.17;;;9.05;;
12591;SDS011;6361;52.120;5.108;2023-01-16T01:18:48;13.50;;;8.23;;
12591;SDS011;6361;52.120;5.108;2023-01-16T01:21:14;16.00;;;8.95;;
12591;SDS011;6361;52.120;5.108;2023-01-16T01:23:40;18.60;;;8.98;;
12591;SDS011;6361;52.120;5.108;2023-01-16T01:26:09;14.40;;;8.05;;
12591;SDS011;6361;52.120;5.108;2023-01-16T01:28:35;14.30;;;8.15;;
12591;SDS011;6361;52.120;5.108;2023-01-16T01:31:02;13.52;;;7.97;;
12591;SDS011;6361;52.120;5.108;2023-01-16T01:33:29;16.48;;;8.73;;
12591;SDS011;6361;52.120;5.108;2023-01-16T01:35:54;12.52;;;8.43;;
12591;SDS011;6361;52.120;5.108;2023-01-16T01:38:19;14.98;;;8.80;;
12591;SDS011;6361;52.120;5.108;2023-01-16T01:40:45;13.13;;;8.52;;
12591;SDS011;6361;52.120;5.108;2023-01-16T01:43:10;18.50;;;8.73;;
12591;SDS011;6361;52.120;5.108;2023-01-16T01:45:38;16.80;;;8.43;;
12591;SDS011;6361;52.120;5.108;2023-01-16T01:50:38;21.30;;;8.13;;
12591;SDS011;6361;52.120;5.108;2023-01-16T01:53:26;12.50;;;7.80;;
12591;SDS011;6361;52.120;5.108;2023-01-16T01:55:54;17.48;;;7.65;;
12591;SDS011;6361;52.120;5.108;2023-01-16T01:58:22;16.80;;;7.95;;
12591;SDS011;6361;52.120;5.108;2023-01-16T02:00:48;15.65;;;7.43;;
12591;SDS011;6361;52.120;5.108;2023-01-16T02:03:17;15.50;;;7.60;;
12591;SDS011;6361;52.120;5.108;2023-01-16T02:05:50;14.95;;;7.88;;
12591;SDS011;6361;52.120;5.108;2023-01-16T02:08:19;13.65;;;8.02;;
12591;SDS011;6361;52.120;5.108;2023-01-16T02:10:47;16.42;;;7.60;;
12591;SDS011;6361;52.120;5.108;2023-01-16T02:13:15;13.65;;;7.45;;
12591;SDS011;6361;52.120;5.108;2023-01-16T02:15:40;15.18;;;7.20;;
12591;SDS011;6361;52.120;5.108;2023-01-16T02:23:56;15.55;;;6.45;;
12591;SDS011;6361;52.120;5.108;2023-01-16T02:29:51;14.45;;;6.82;;
12591;SDS011;6361;52.120;5.108;2023-01-16T02:37:42;16.20;;;7.85;;
12591;SDS011;6361;52.120;5.108;2023-01-16T02:45:45;14.73;;;6.68;;
12591;SDS011;6361;52.120;5.108;2023-01-16T02:48:25;14.05;;;6.03;;
12591;SDS011;6361;52.120;5.108;2023-01-16T02:51:11;12.25;;;5.32;;
12591;SDS011;6361;52.120;5.108;2023-01-16T02:56:11;11.75;;;4.80;;
12591;SDS011;6361;52.120;5.108;2023-01-16T02:58:41;17.48;;;5.70;;
12591;SDS011;6361;52.120;5.108;2023-01-16T03:01:08;11.95;;;4.75;;
12591;SDS011;6361;52.120;5.108;2023-01-16T03:03:49;11.25;;;4.95;;
12591;SDS011;6361;52.120;5.108;2023-01-16T03:06:28;9.65;;;3.85;;
12591;SDS011;6361;52.120;5.108;2023-01-16T03:11:41;9.25;;;3.38;;
12591;SDS011;6361;52.120;5.108;2023-01-16T03:19:43;7.00;;;2.92;;
12591;SDS011;6361;52.120;5.108;2023-01-16T03:27:20;9.75;;;2.45;;
12591;SDS011;6361;52.120;5.108;2023-01-16T03:32:27;5.97;;;2.55;;
12591;SDS011;6361;52.120;5.108;2023-01-16T03:37:35;4.93;;;2.13;;
12591;SDS011;6361;52.120;5.108;2023-01-16T03:40:17;9.23;;;2.25;;
12591;SDS011;6361;52.120;5.108;2023-01-16T03:42:46;7.38;;;2.13;;
12591;SDS011;6361;52.120;5.108;2023-01-16T03:45:29;6.38;;;1.80;;
12591;SDS011;6361;52.120;5.108;2023-01-16T03:48:00;8.48;;;1.95;;
12591;SDS011;6361;52.120;5.108;2023-01-16T03:51:05;7.00;;;1.73;;
12591;SDS011;6361;52.120;5.108;2023-01-16T03:53:42;6.35;;;1.90;;
12591;SDS011;6361;52.120;5.108;2023-01-16T03:58:39;5.57;;;1.67;;
12591;SDS011;6361;52.120;5.108;2023-01-16T04:03:34;5.85;;;1.90;;
12591;SDS011;6361;52.120;5.108;2023-01-16T04:09:24;8.88;;;2.42;;
12591;SDS011;6361;52.120;5.108;2023-01-16T04:11:54;9.65;;;2.10;;
12591;SDS011;6361;52.120;5.108;2023-01-16T04:14:21;4.13;;;1.90;;
12591;SDS011;6361;52.120;5.108;2023-01-16T04:16:48;7.35;;;1.92;;
12591;SDS011;6361;52.120;5.108;2023-01-16T04:19:13;5.88;;;1.75;;
12591;SDS011;6361;52.120;5.108;2023-01-16T04:21:44;5.38;;;1.88;;
12591;SDS011;6361;52.120;5.108;2023-01-16T04:24:10;7.28;;;1.70;;
12591;SDS011;6361;52.120;5.108;2023-01-16T04:26:36;9.88;;;1.80;;
12591;SDS011;6361;52.120;5.108;2023-01-16T04:29:01;5.15;;;1.80;;
12591;SDS011;6361;52.120;5.108;2023-01-16T04:31:27;6.55;;;1.85;;
12591;SDS011;6361;52.120;5.108;2023-01-16T04:33:53;4.90;;;1.60;;
12591;SDS011;6361;52.120;5.108;2023-01-16T04:36:18;7.43;;;1.88;;
12591;SDS011;6361;52.120;5.108;2023-01-16T04:38:44;6.50;;;1.55;;
12591;SDS011;6361;52.120;5.108;2023-01-16T04:41:09;4.00;;;1.77;;
12591;SDS011;6361;52.120;5.108;2023-01-16T04:43:34;6.03;;;1.52;;
12591;SDS011;6361;52.120;5.108;2023-01-16T04:46:00;4.78;;;1.50;;
12591;SDS011;6361;52.120;5.108;2023-01-16T04:48:25;7.00;;;1.63;;
12591;SDS011;6361;52.120;5.108;2023-01-16T04:50:51;6.55;;;1.63;;
12591;SDS011;6361;52.120;5.108;2023-01-16T04:53:16;8.52;;;1.67;;
12591;SDS011;6361;52.120;5.108;2023-01-16T04:55:41;5.22;;;1.70;;
12591;SDS011;6361;52.120;5.108;2023-01-16T04:58:07;6.93;;;1.73;;
12591;SDS011;6361;52.120;5.108;2023-01-16T05:00:32;6.82;;;1.65;;
12591;SDS011;6361;52.120;5.108;2023-01-16T05:02:58;5.15;;;1.73;;
12591;SDS011;6361;52.120;5.108;2023-01-16T05:05:23;6.63;;;2.20;;
12591;SDS011;6361;52.120;5.108;2023-01-16T05:07:48;6.75;;;1.73;;
12591;SDS011;6361;52.120;5.108;2023-01-16T05:10:32;5.07;;;1.52;;
12591;SDS011;6361;52.120;5.108;2023-01-16T05:12:58;4.53;;;1.48;;
12591;SDS011;6361;52.120;5.108;2023-01-16T05:15:23;10.20;;;1.75;;
12591;SDS011;6361;52.120;5.108;2023-01-16T05:17:48;7.80;;;1.95;;
12591;SDS011;6361;52.120;5.108;2023-01-16T05:20:14;8.02;;;1.58;;
12591;SDS011;6361;52.120;5.108;2023-01-16T05:22:39;4.80;;;1.80;;
12591;SDS011;6361;52.120;5.108;2023-01-16T05:25:04;3.45;;;1.60;;
12591;SDS011;6361;52.120;5.108;2023-01-16T05:27:30;7.07;;;1.70;;
12591;SDS011;6361;52.120;5.108;2023-01-16T05:29:55;7.70;;;1.40;;
12591;SDS011;6361;52.120;5.108;2023-01-16T05:32:21;7.43;;;1.90;;
12591;SDS011;6361;52.120;5.108;2023-01-16T05:34:46;3.85;;;1.60;;
12591;SDS011;6361;52.120;5.108;2023-01-16T05:37:11;6.25;;;1.40;;
12591;SDS011;6361;52.120;5.108;2023-01-16T05:39:37;7.03;;;1.70;;
12591;SDS011;6361;52.120;5.108;2023-01-16T05:42:02;5.78;;;1.75;;
12591;SDS011;6361;52.120;5.108;2023-01-16T05:44:27;8.95;;;1.85;;
12591;SDS011;6361;52.120;5.108;2023-01-16T05:46:53;7.45;;;1.70;;
12591;SDS011;6361;52.120;5.108;2023-01-16T05:49:18;8.80;;;2.08;;
12591;SDS011;6361;52.120;5.108;2023-01-16T05:51:44;6.63;;;1.90;;
12591;SDS011;6361;52.120;5.108;2023-01-16T05:54:10;6.80;;;2.00;;
12591;SDS011;6361;52.120;5.108;2023-01-16T05:56:37;8.20;;;1.90;;
12591;SDS011;6361;52.120;5.108;2023-01-16T05:59:02;7.22;;;1.88;;
12591;SDS011;6361;52.120;5.108;2023-01-16T06:01:28;7.22;;;1.77;;
12591;SDS011;6361;52.120;5.108;2023-01-16T06:03:54;6.35;;;1.83;;
12591;SDS011;6361;52.120;5.108;2023-01-16T06:06:19;8.02;;;2.20;;
12591;SDS011;6361;52.120;5.108;2023-01-16T06:08:48;5.32;;;1.95;;
12591;SDS011;6361;52.120;5.108;2023-01-16T06:11:13;10.73;;;2.13;;
12591;SDS011;6361;52.120;5.108;2023-01-16T06:13:39;6.32;;;2.00;;
12591;SDS011;6361;52.120;5.108;2023-01-16T06:16:04;7.45;;;1.90;;
12591;SDS011;6361;52.120;5.108;2023-01-16T06:18:29;8.15;;;2.00;;
12591;SDS011;6361;52.120;5.108;2023-01-16T06:20:55;4.95;;;1.50;;
12591;SDS011;6361;52.120;5.108;2023-01-16T06:23:20;5.13;;;1.63;;
12591;SDS011;6361;52.120;5.108;2023-01-16T06:25:49;7.63;;;2.13;;
12591;SDS011;6361;52.120;5.108;2023-01-16T06:28:15;6.60;;;1.83;;
12591;SDS011;6361;52.120;5.108;2023-01-16T06:30:40;7.38;;;1.90;;
12591;SDS011;6361;52.120;5.108;2023-01-16T06:33:05;4.03;;;1.70;;
12591;SDS011;6361;52.120;5.108;2023-01-16T06:35:31;14.23;;;2.90;;
12591;SDS011;6361;52.120;5.108;2023-01-16T06:37:56;6.63;;;2.15;;
12591;SDS011;6361;52.120;5.108;2023-01-16T06:40:21;8.80;;;2.50;;
12591;SDS011;6361;52.120;5.108;2023-01-16T06:42:47;7.95;;;1.90;;
12591;SDS011;6361;52.120;5.108;2023-01-16T06:45:12;7.22;;;1.88;;
12591;SDS011;6361;52.120;5.108;2023-01-16T06:47:38;7.10;;;1.77;;
12591;SDS011;6361;52.120;5.108;2023-01-16T06:50:03;5.18;;;1.65;;
12591;SDS011;6361;52.120;5.108;2023-01-16T06:52:29;8.55;;;1.70;;
12591;SDS011;6361;52.120;5.108;2023-01-16T06:54:54;7.47;;;1.58;;
12591;SDS011;6361;52.120;5.108;2023-01-16T06:57:20;5.75;;;1.67;;
12591;SDS011;6361;52.120;5.108;2023-01-16T06:59:46;5.88;;;1.80;;
12591;SDS011;6361;52.120;5.108;2023-01-16T07:02:11;5.75;;;1.70;;
12591;SDS011;6361;52.120;5.108;2023-01-16T07:04:36;7.88;;;2.03;;
12591;SDS011;6361;52.120;5.108;2023-01-16T07:07:02;9.32;;;1.80;;
12591;SDS011;6361;52.120;5.108;2023-01-16T07:09:27;6.93;;;1.70;;
12591;SDS011;6361;52.120;5.108;2023-01-16T07:11:57;7.05;;;2.00;;
12591;SDS011;6361;52.120;5.108;2023-01-16T07:14:22;9.52;;;2.08;;
12591;SDS011;6361;52.120;5.108;2023-01-16T07:17:08;4.57;;;1.60;;
12591;SDS011;6361;52.120;5.108;2023-01-16T07:19:53;4.57;;;1.60;;
12591;SDS011;6361;52.120;5.108;2023-01-16T07:22:37;2.80;;;1.20;;
12591;SDS011;6361;52.120;5.108;2023-01-16T07:25:06;9.02;;;1.58;;
12591;SDS011;6361;52.120;5.108;2023-01-16T07:27:54;6.43;;;1.50;;
12591;SDS011;6361;52.120;5.108;2023-01-16T07:30:20;4.38;;;1.52;;
12591;SDS011;6361;52.120;5.108;2023-01-16T07:32:46;3.38;;;1.33;;
12591;SDS011;6361;52.120;5.108;2023-01-16T07:35:12;1.98;;;1.20;;
12591;SDS011;6361;52.120;5.108;2023-01-16T07:37:38;6.05;;;1.38;;
12591;SDS011;6361;52.120;5.108;2023-01-16T07:40:04;3.90;;;1.27;;
12591;SDS011;6361;52.120;5.108;2023-01-16T07:42:30;5.75;;;1.35;;
12591;SDS011;6361;52.120;5.108;2023-01-16T07:44:55;7.88;;;1.88;;
12591;SDS011;6361;52.120;5.108;2023-01-16T07:47:20;3.33;;;1.00;;
12591;SDS011;6361;52.120;5.108;2023-01-16T07:49:46;4.88;;;1.27;;
12591;SDS011;6361;52.120;5.108;2023-01-16T07:52:11;4.85;;;1.40;;
12591;SDS011;6361;52.120;5.108;2023-01-16T07:54:36;4.47;;;1.20;;
12591;SDS011;6361;52.120;5.108;2023-01-16T07:57:05;3.78;;;1.10;;
12591;SDS011;6361;52.120;5.108;2023-01-16T07:59:30;7.57;;;1.40;;
12591;SDS011;6361;52.120;5.108;2023-01-16T08:01:55;8.48;;;1.50;;
12591;SDS011;6361;52.120;5.108;2023-01-16T08:04:21;5.28;;;1.20;;
12591;SDS011;6361;52.120;5.108;2023-01-16T08:06:46;3.58;;;1.17;;
12591;SDS011;6361;52.120;5.108;2023-01-16T08:09:12;7.80;;;1.27;;
12591;SDS011;6361;52.120;5.108;2023-01-16T08:11:37;3.97;;;1.10;;
12591;SDS011;6361;52.120;5.108;2023-01-16T08:14:11;3.22;;;1.38;;
12591;SDS011;6361;52.120;5.108;2023-01-16T08:16:36;4.10;;;1.33;;
12591;SDS011;6361;52.120;5.108;2023-01-16T08:19:02;3.53;;;1.20;;
12591;SDS011;6361;52.120;5.108;2023-01-16T08:21:27;4.30;;;1.45;;
12591;SDS011;6361;52.120;5.108;2023-01-16T08:23:52;2.25;;;1.00;;
12591;SDS011;6361;52.120;5.108;2023-01-16T08:26:18;3.83;;;1.20;;
12591;SDS011;6361;52.120;5.108;2023-01-16T08:28:43;4.10;;;1.00;;
12591;SDS011;6361;52.120;5.108;2023-01-16T08:31:10;4.47;;;1.20;;
12591;SDS011;6361;52.120;5.108;2023-01-16T08:33:38;4.93;;;1.33;;
12591;SDS011;6361;52.120;5.108;2023-01-16T08:36:05;6.07;;;1.60;;
12591;SDS011;6361;52.120;5.108;2023-01-16T08:38:31;5.80;;;1.42;;
12591;SDS011;6361;52.120;5.108;2023-01-16T08:40:57;5.78;;;1.80;;
12591;SDS011;6361;52.120;5.108;2023-01-16T08:43:22;3.55;;;1.60;;
12591;SDS011;6361;52.120;5.108;2023-01-16T08:46:12;8.95;;;1.83;;
12591;SDS011;6361;52.120;5.108;2023-01-16T08:49:01;4.90;;;1.63;;
12591;SDS011;6361;52.120;5.108;2023-01-16T08:51:46;3.22;;;1.60;;
12591;SDS011;6361;52.120;5.108;2023-01-16T08:54:11;5.57;;;1.60;;
12591;SDS011;6361;52.120;5.108;2023-01-16T08:56:37;3.08;;;1.48;;
12591;SDS011;6361;52.120;5.108;2023-01-16T08:59:07;4.13;;;1.90;;
12591;SDS011;6361;52.120;5.108;2023-01-16T09:01:36;2.72;;;1.85;;
12591;SDS011;6361;52.120;5.108;2023-01-16T09:04:03;4.50;;;1.83;;
12591;SDS011;6361;52.120;5.108;2023-01-16T09:06:29;3.45;;;1.90;;
12591;SDS011;6361;52.120;5.108;2023-01-16T09:08:55;4.53;;;2.47;;
12591;SDS011;6361;52.120;5.108;2023-01-16T09:11:20;3.78;;;2.10;;
12591;SDS011;6361;52.120;5.108;2023-01-16T09:14:04;6.25;;;2.42;;
12591;SDS011;6361;52.120;5.108;2023-01-16T09:16:29;4.05;;;2.17;;
12591;SDS011;6361;52.120;5.108;2023-01-16T09:18:55;4.53;;;2.15;;
12591;SDS011;6361;52.120;5.108;2023-01-16T09:21:20;4.32;;;2.20;;
12591;SDS011;6361;52.120;5.108;2023-01-16T09:23:48;4.30;;;2.20;;
12591;SDS011;6361;52.120;5.108;2023-01-16T09:26:14;5.47;;;2.10;;
12591;SDS011;6361;52.120;5.108;2023-01-16T09:28:39;3.55;;;2.20;;
12591;SDS011;6361;52.120;5.108;2023-01-16T09:31:05;4.57;;;2.50;;
12591;SDS011;6361;52.120;5.108;2023-01-16T09:33:30;3.90;;;2.40;;
12591;SDS011;6361;52.120;5.108;2023-01-16T09:35:56;4.80;;;2.60;;
12591;SDS011;6361;52.120;5.108;2023-01-16T09:38:21;4.32;;;2.38;;
12591;SDS011;6361;52.120;5.108;2023-01-16T09:40:47;4.50;;;2.70;;
12591;SDS011;6361;52.120;5.108;2023-01-16T09:43:49;7.20;;;2.50;;
12591;SDS011;6361;52.120;5.108;2023-01-16T09:46:14;3.97;;;2.35;;
12591;SDS011;6361;52.120;5.108;2023-01-16T09:49:26;3.78;;;2.15;;
12591;SDS011;6361;52.120;5.108;2023-01-16T09:51:45;5.35;;;2.40;;
12591;SDS011;6361;52.120;5.108;2023-01-16T09:54:34;3.22;;;2.00;;
12591;SDS011;6361;52.120;5.108;2023-01-16T09:57:22;6.05;;;2.30;;
12591;SDS011;6361;52.120;5.108;2023-01-16T10:00:10;4.82;;;2.22;;
12591;SDS011;6361;52.120;5.108;2023-01-16T10:02:36;5.65;;;1.90;;
12591;SDS011;6361;52.120;5.108;2023-01-16T10:05:03;3.65;;;2.30;;
12591;SDS011;6361;52.120;5.108;2023-01-16T10:12:57;3.97;;;1.98;;
12591;SDS011;6361;52.120;5.108;2023-01-16T10:15:41;4.07;;;1.88;;
12591;SDS011;6361;52.120;5.108;2023-01-16T10:18:17;4.20;;;1.85;;
12591;SDS011;6361;52.120;5.108;2023-01-16T10:23:47;3.42;;;1.70;;
12591;SDS011;6361;52.120;5.108;2023-01-16T10:26:41;3.20;;;1.90;;
12591;SDS011;6361;52.120;5.108;2023-01-16T10:29:27;4.25;;;1.60;;
12591;SDS011;6361;52.120;5.108;2023-01-16T10:36:59;2.58;;;1.33;;
12591;SDS011;6361;52.120;5.108;2023-01-16T10:39:35;2.10;;;1.35;;
12591;SDS011;6361;52.120;5.108;2023-01-16T10:44:58;3.58;;;1.40;;
12591;SDS011;6361;52.120;5.108;2023-01-16T10:47:42;5.13;;;1.80;;
12591;SDS011;6361;52.120;5.108;2023-01-16T10:50:27;6.38;;;1.30;;
12591;SDS011;6361;52.120;5.108;2023-01-16T10:52:52;2.47;;;1.35;;
12591;SDS011;6361;52.120;5.108;2023-01-16T10:55:18;4.20;;;1.30;;
12591;SDS011;6361;52.120;5.108;2023-01-16T10:57:44;2.83;;;1.20;;
12591;SDS011;6361;52.120;5.108;2023-01-16T11:00:21;2.28;;;1.30;;
12591;SDS011;6361;52.120;5.108;2023-01-16T11:02:53;2.40;;;1.20;;
12591;SDS011;6361;52.120;5.108;2023-01-16T11:08:01;3.40;;;1.23;;
12591;SDS011;6361;52.120;5.108;2023-01-16T11:10:37;3.40;;;1.60;;
12591;SDS011;6361;52.120;5.108;2023-01-16T11:13:03;2.28;;;1.20;;
12591;SDS011;6361;52.120;5.108;2023-01-16T11:19:17;4.40;;;2.53;;
12591;SDS011;6361;52.120;5.108;2023-01-16T11:21:54;3.05;;;1.48;;
12591;SDS011;6361;52.120;5.108;2023-01-16T11:24:22;3.38;;;1.23;;
12591;SDS011;6361;52.120;5.108;2023-01-16T11:26:53;3.13;;;1.48;;
12591;SDS011;6361;52.120;5.108;2023-01-16T11:29:20;2.90;;;1.38;;
12591;SDS011;6361;52.120;5.108;2023-01-16T11:31:53;3.72;;;1.67;;
12591;SDS011;6361;52.120;5.108;2023-01-16T11:34:20;2.67;;;1.80;;
12591;SDS011;6361;52.120;5.108;2023-01-16T11:36:46;3.30;;;1.40;;
12591;SDS011;6361;52.120;5.108;2023-01-16T11:39:19;3.55;;;1.08;;
12591;SDS011;6361;52.120;5.108;2023-01-16T11:41:50;3.60;;;1.42;;
12591;SDS011;6361;52.120;5.108;2023-01-16T11:44:17;2.03;;;1.17;;
12591;SDS011;6361;52.120;5.108;2023-01-16T11:47:03;2.83;;;1.25;;
12591;SDS011;6361;52.120;5.108;2023-01-16T11:49:33;1.80;;;1.20;;
12591;SDS011;6361;52.120;5.108;2023-01-16T11:52:00;2.55;;;1.20;;
12591;SDS011;6361;52.120;5.108;2023-01-16T11:54:30;2.05;;;1.10;;
12591;SDS011;6361;52.120;5.108;2023-01-16T12:00:18;2.00;;;1.40;;
12591;SDS011;6361;52.120;5.108;2023-01-16T12:10:58;3.60;;;2.17;;
12591;SDS011;6361;52.120;5.108;2023-01-16T12:13:46;3.55;;;1.50;;
12591;SDS011;6361;52.120;5.108;2023-01-16T12:24:48;1.83;;;1.30;;
12591;SDS011;6361;52.120;5.108;2023-01-16T12:30:20;3.20;;;1.90;;
12591;SDS011;6361;52.120;5.108;2023-01-16T12:33:09;1.83;;;1.30;;
12591;SDS011;6361;52.120;5.108;2023-01-16T12:35:50;5.13;;;2.10;;
12591;SDS011;6361;52.120;5.108;2023-01-16T12:38:35;2.20;;;1.10;;
12591;SDS011;6361;52.120;5.108;2023-01-16T12:44:19;2.53;;;1.10;;
12591;SDS011;6361;52.120;5.108;2023-01-16T12:47:16;2.90;;;1.30;;
12591;SDS011;6361;52.120;5.108;2023-01-16T12:55:22;3.30;;;1.73;;
12591;SDS011;6361;52.120;5.108;2023-01-16T13:00:30;3.40;;;1.60;;
12591;SDS011;6361;52.120;5.108;2023-01-16T13:03:22;2.30;;;1.30;;
12591;SDS011;6361;52.120;5.108;2023-01-16T13:05:52;2.60;;;1.23;;
12591;SDS011;6361;52.120;5.108;2023-01-16T13:08:24;6.30;;;3.95;;
12591;SDS011;6361;52.120;5.108;2023-01-16T13:10:50;2.40;;;1.70;;
12591;SDS011;6361;52.120;5.108;2023-01-16T13:13:40;10.02;;;6.95;;
12591;SDS011;6361;52.120;5.108;2023-01-16T13:18:45;3.50;;;2.20;;
12591;SDS011;6361;52.120;5.108;2023-01-16T13:21:14;3.30;;;1.55;;
12591;SDS011;6361;52.120;5.108;2023-01-16T13:23:47;2.50;;;1.42;;
12591;SDS011;6361;52.120;5.108;2023-01-16T13:26:16;3.25;;;1.58;;
12591;SDS011;6361;52.120;5.108;2023-01-16T13:28:53;1.80;;;1.40;;
12591;SDS011;6361;52.120;5.108;2023-01-16T13:31:33;3.17;;;1.67;;
12591;SDS011;6361;52.120;5.108;2023-01-16T13:34:09;2.60;;;1.30;;
12591;SDS011;6361;52.120;5.108;2023-01-16T13:42:07;2.05;;;1.50;;
12591;SDS011;6361;52.120;5.108;2023-01-16T13:44:37;2.08;;;1.50;;
12591;SDS011;6361;52.120;5.108;2023-01-16T13:47:30;4.68;;;2.35;;
12591;SDS011;6361;52.120;5.108;2023-01-16T13:50:07;5.22;;;2.85;;
12591;SDS011;6361;52.120;5.108;2023-01-16T13:52:43;2.83;;;1.90;;
12591;SDS011;6361;52.120;5.108;2023-01-16T13:55:13;3.25;;;1.90;;
12591;SDS011;6361;52.120;5.108;2023-01-16T13:57:46;3.78;;;2.10;;
12591;SDS011;6361;52.120;5.108;2023-01-16T14:00:12;5.22;;;2.35;;
12591;SDS011;6361;52.120;5.108;2023-01-16T14:02:39;4.45;;;2.10;;
12591;SDS011;6361;52.120;5.108;2023-01-16T14:13:24;3.83;;;2.05;;
12591;SDS011;6361;52.120;5.108;2023-01-16T14:16:00;2.92;;;2.00;;
12591;SDS011;6361;52.120;5.108;2023-01-16T14:21:24;2.50;;;1.98;;
12591;SDS011;6361;52.120;5.108;2023-01-16T14:23:56;3.55;;;2.42;;
12591;SDS011;6361;52.120;5.108;2023-01-16T14:29:05;4.13;;;2.45;;
12591;SDS011;6361;52.120;5.108;2023-01-16T14:31:40;3.10;;;2.60;;
12591;SDS011;6361;52.120;5.108;2023-01-16T14:34:14;3.13;;;2.30;;
12591;SDS011;6361;52.120;5.108;2023-01-16T14:36:42;5.68;;;2.75;;
12591;SDS011;6361;52.120;5.108;2023-01-16T14:42:03;2.55;;;2.30;;
12591;SDS011;6361;52.120;5.108;2023-01-16T14:47:56;3.28;;;1.83;;
12591;SDS011;6361;52.120;5.108;2023-01-16T14:50:50;2.83;;;1.80;;
12591;SDS011;6361;52.120;5.108;2023-01-16T14:53:38;1.92;;;1.55;;
12591;SDS011;6361;52.120;5.108;2023-01-16T14:56:26;2.38;;;1.65;;
12591;SDS011;6361;52.120;5.108;2023-01-16T15:01:35;1.77;;;1.35;;
12591;SDS011;6361;52.120;5.108;2023-01-16T15:04:24;2.45;;;1.30;;
12591;SDS011;6361;52.120;5.108;2023-01-16T15:06:56;2.67;;;1.42;;
12591;SDS011;6361;52.120;5.108;2023-01-16T15:09:23;1.83;;;1.30;;
12591;SDS011;6361;52.120;5.108;2023-01-16T15:11:59;2.83;;;1.60;;
12591;SDS011;6361;52.120;5.108;2023-01-16T15:14:26;1.98;;;1.17;;
12591;SDS011;6361;52.120;5.108;2023-01-16T15:19:53;1.63;;;1.48;;
12591;SDS011;6361;52.120;5.108;2023-01-16T15:22:43;2.40;;;1.67;;
12591;SDS011;6361;52.120;5.108;2023-01-16T15:25:12;2.20;;;1.48;;
12591;SDS011;6361;52.120;5.108;2023-01-16T15:27:47;3.30;;;1.70;;
12591;SDS011;6361;52.120;5.108;2023-01-16T15:30:18;1.73;;;1.63;;
12591;SDS011;6361;52.120;5.108;2023-01-16T15:32:56;2.40;;;1.70;;
12591;SDS011;6361;52.120;5.108;2023-01-16T15:35:42;4.55;;;2.10;;
12591;SDS011;6361;52.120;5.108;2023-01-16T15:38:08;2.63;;;2.00;;
12591;SDS011;6361;52.120;5.108;2023-01-16T15:40:36;3.38;;;2.40;;
12591;SDS011;6361;52.120;5.108;2023-01-16T15:43:01;3.75;;;2.70;;
12591;SDS011;6361;52.120;5.108;2023-01-16T15:45:51;3.22;;;2.78;;
12591;SDS011;6361;52.120;5.108;2023-01-16T15:49:03;3.85;;;3.05;;
12591;SDS011;6361;52.120;5.108;2023-01-16T15:51:31;4.72;;;3.10;;
12591;SDS011;6361;52.120;5.108;2023-01-16T15:53:56;4.85;;;2.50;;
12591;SDS011;6361;52.120;5.108;2023-01-16T15:56:34;3.97;;;2.92;;
12591;SDS011;6361;52.120;5.108;2023-01-16T15:59:02;3.55;;;2.90;;
12591;SDS011;6361;52.120;5.108;2023-01-16T16:01:28;3.33;;;2.92;;
12591;SDS011;6361;52.120;5.108;2023-01-16T16:03:58;5.55;;;3.75;;
12591;SDS011;6361;52.120;5.108;2023-01-16T16:06:25;7.93;;;3.97;;
12591;SDS011;6361;52.120;5.108;2023-01-16T16:08:53;4.30;;;3.53;;
12591;SDS011;6361;52.120;5.108;2023-01-16T16:11:24;4.45;;;3.70;;
12591;SDS011;6361;52.120;5.108;2023-01-16T16:14:19;5.50;;;3.90;;
12591;SDS011;6361;52.120;5.108;2023-01-16T16:17:43;5.90;;;4.53;;
12591;SDS011;6361;52.120;5.108;2023-01-16T16:25:55;6.00;;;4.43;;
12591;SDS011;6361;52.120;5.108;2023-01-16T16:28:32;7.65;;;4.57;;
12591;SDS011;6361;52.120;5.108;2023-01-16T16:33:37;5.72;;;4.60;;
12591;SDS011;6361;52.120;5.108;2023-01-16T16:36:03;5.20;;;4.47;;
12591;SDS011;6361;52.120;5.108;2023-01-16T16:48:49;2.45;;;2.25;;
12591;SDS011;6361;52.120;5.108;2023-01-16T16:51:43;3.20;;;2.60;;
12591;SDS011;6361;52.120;5.108;2023-01-16T16:54:14;2.55;;;2.22;;
12591;SDS011;6361;52.120;5.108;2023-01-16T16:56:44;1.48;;;1.38;;
12591;SDS011;6361;52.120;5.108;2023-01-16T16:59:19;1.70;;;1.30;;
12591;SDS011;6361;52.120;5.108;2023-01-16T17:01:50;1.20;;;1.08;;
12591;SDS011;6361;52.120;5.108;2023-01-16T17:04:18;1.83;;;1.13;;
12591;SDS011;6361;52.120;5.108;2023-01-16T17:06:44;1.48;;;1.38;;
12591;SDS011;6361;52.120;5.108;2023-01-16T17:09:11;12.55;;;7.22;;
12591;SDS011;6361;52.120;5.108;2023-01-16T17:11:38;2.25;;;1.73;;
12591;SDS011;6361;52.120;5.108;2023-01-16T17:14:04;1.20;;;1.10;;
12591;SDS011;6361;52.120;5.108;2023-01-16T17:16:32;1.23;;;1.00;;
12591;SDS011;6361;52.120;5.108;2023-01-16T17:19:02;1.58;;;1.10;;
12591;SDS011;6361;52.120;5.108;2023-01-16T17:21:30;1.45;;;1.08;;
12591;SDS011;6361;52.120;5.108;2023-01-16T17:23:55;1.30;;;1.20;;
12591;SDS011;6361;52.120;5.108;2023-01-16T17:26:21;5.70;;;3.15;;
12591;SDS011;6361;52.120;5.108;2023-01-16T17:28:47;2.88;;;1.70;;
12591;SDS011;6361;52.120;5.108;2023-01-16T17:31:13;1.30;;;1.20;;
12591;SDS011;6361;52.120;5.108;2023-01-16T17:33:39;1.75;;;1.27;;
12591;SDS011;6361;52.120;5.108;2023-01-16T17:36:05;1.20;;;1.10;;
12591;SDS011;6361;52.120;5.108;2023-01-16T17:38:37;1.30;;;1.17;;
12591;SDS011;6361;52.120;5.108;2023-01-16T17:41:04;1.60;;;1.40;;
12591;SDS011;6361;52.120;5.108;2023-01-16T17:43:33;2.95;;;1.55;;
12591;SDS011;6361;52.120;5.108;2023-01-16T17:46:18;1.60;;;1.48;;
12591;SDS011;6361;52.120;5.108;2023-01-16T17:48:48;1.90;;;1.63;;
12591;SDS011;6361;52.120;5.108;2023-01-16T17:51:15;2.63;;;1.83;;
12591;SDS011;6361;52.120;5.108;2023-01-16T17:53:40;2.20;;;2.00;;
12591;SDS011;6361;52.120;5.108;2023-01-16T17:56:06;2.38;;;2.17;;
12591;SDS011;6361;52.120;5.108;2023-01-16T18:01:08;4.18;;;2.55;;
12591;SDS011;6361;52.120;5.108;2023-01-16T18:03:35;2.15;;;1.95;;